Time;durP1;ratioP1;P1;durP2;ratioP2;P2;SDS_P1;SDS_P2;PMS_P1;PMS_P2;Temp;Humidity;BMP_temperature;BMP_pressure;BME280_temperature;BME280_humidity;BME280_pressure;Samples;Min_cycle;Max_cycle;Signal;HPM_P1;HPM_P2
2022/07/15 00:01:51;;;;;;;3.95;1.20;;;;;;;23.43;47.13;102211.06;5133622;28;20019;-70
2022/07/15 00:04:16;;;;;;;5.72;1.70;;;;;;;23.42;47.07;102211.19;5132888;28;20069;-70
2022/07/15 00:06:41;;;;;;;5.17;1.57;;;;;;;23.40;46.79;102213.09;5133819;28;20123;-71
2022/07/15 00:09:07;;;;;;;3.28;1.30;;;;;;;23.39;47.25;102214.94;5133323;28;20259;-71
2022/07/15 00:11:33;;;;;;;3.30;1.38;;;;;;;23.35;47.25;102209.03;5132704;28;20592;-70
2022/07/15 00:13:58;;;;;;;4.25;1.65;;;;;;;23.34;47.24;102215.31;5133570;28;20042;-69
2022/07/15 00:16:26;;;;;;;3.35;1.30;;;;;;;23.34;46.94;102209.97;5133603;28;20031;-70
2022/07/15 00:18:52;;;;;;;5.18;1.52;;;;;;;23.32;46.91;102205.75;5132706;28;20039;-70
2022/07/15 00:21:17;;;;;;;5.72;1.63;;;;;;;23.32;46.70;102217.25;5133812;28;20027;-69
2022/07/15 00:23:42;;;;;;;4.73;1.67;;;;;;;23.31;46.97;102212.88;5133764;28;20393;-70
2022/07/15 00:26:08;;;;;;;4.75;1.50;;;;;;;23.30;47.31;102211.19;5132848;28;20279;-70
2022/07/15 00:28:33;;;;;;;5.38;1.50;;;;;;;23.27;46.77;102199.97;5133656;28;20389;-70
2022/07/15 00:30:58;;;;;;;4.22;1.33;;;;;;;23.27;47.08;102205.28;5132882;27;20367;-70
2022/07/15 00:33:24;;;;;;;5.10;1.50;;;;;;;23.24;47.05;102202.88;5137141;27;20024;-70
2022/07/15 00:35:52;;;;;;;5.35;1.20;;;;;;;23.24;46.91;102205.53;5137175;27;20458;-70
2022/07/15 00:38:17;;;;;;;3.53;1.50;;;;;;;23.24;46.85;102203.75;5136676;27;20062;-71
2022/07/15 00:40:45;;;;;;;4.20;1.40;;;;;;;23.24;46.72;102209.06;5136712;27;20057;-70
2022/07/15 00:43:11;;;;;;;5.43;1.27;;;;;;;23.25;46.66;102207.25;5137269;27;20431;-70
2022/07/15 00:45:36;;;;;;;3.70;1.40;;;;;;;23.23;46.53;102207.38;5136577;27;20455;-70
2022/07/15 00:48:02;;;;;;;2.83;1.25;;;;;;;23.21;46.65;102204.00;5137369;27;20027;-70
2022/07/15 00:50:30;;;;;;;4.10;1.40;;;;;;;23.21;46.72;102197.81;5138054;27;20015;-70
2022/07/15 00:53:04;;;;;;;4.05;1.48;;;;;;;23.21;46.81;102205.78;5136389;27;20030;-70
2022/07/15 00:55:37;;;;;;;3.42;1.27;;;;;;;23.18;46.84;102205.06;5137157;27;20027;-70
2022/07/15 00:58:07;;;;;;;3.72;1.35;;;;;;;23.17;46.93;102207.84;5137063;27;20119;-70
2022/07/15 01:00:33;;;;;;;4.15;1.40;;;;;;;23.15;46.45;102207.16;5136373;27;20026;-70
2022/07/15 01:03:00;;;;;;;5.20;1.33;;;;;;;23.14;46.79;102206.28;5136727;27;20019;-70
2022/07/15 01:05:26;;;;;;;3.78;1.10;;;;;;;23.14;46.40;102206.28;5137025;27;20031;-70
2022/07/15 01:07:52;;;;;;;4.28;1.38;;;;;;;23.14;46.63;102208.09;5135913;27;20019;-70
2022/07/15 01:10:20;;;;;;;3.63;1.20;;;;;;;23.12;46.55;102197.59;5136755;27;20022;-70
2022/07/15 01:12:49;;;;;;;3.45;1.20;;;;;;;23.12;46.81;102199.41;5137123;27;20064;-70
2022/07/15 01:15:16;;;;;;;4.13;1.45;;;;;;;23.12;46.38;102191.44;5135893;27;20458;-70
2022/07/15 01:17:45;;;;;;;2.95;1.30;;;;;;;23.11;46.61;102195.91;5136444;27;20480;-71
2022/07/15 01:20:12;;;;;;;3.83;1.48;;;;;;;23.11;46.37;102195.06;5136331;27;20420;-70
2022/07/15 01:22:41;;;;;;;3.85;1.27;;;;;;;23.10;46.42;102198.72;5135671;27;20024;-71
2022/07/15 01:25:07;;;;;;;2.38;1.15;;;;;;;23.04;46.53;102189.38;5136272;27;20031;-71
2022/07/15 01:27:32;;;;;;;3.78;1.33;;;;;;;23.08;46.61;102201.50;5136204;27;20528;-70
2022/07/15 01:29:59;;;;;;;5.13;1.50;;;;;;;23.07;46.26;102202.41;5135423;27;20068;-70
2022/07/15 01:32:25;;;;;;;3.33;1.25;;;;;;;23.08;46.63;102203.28;5136696;27;20031;-71
2022/07/15 01:34:51;;;;;;;4.68;1.58;;;;;;;23.05;46.48;102208.81;5135256;27;20107;-70
2022/07/15 01:37:18;;;;;;;6.07;1.70;;;;;;;23.06;46.59;102207.84;5136135;27;20094;-70
2022/07/15 01:39:43;;;;;;;5.30;1.42;;;;;;;23.06;46.41;102218.50;5136193;27;20442;-71
2022/07/15 01:42:09;;;;;;;3.63;1.20;;;;;;;23.05;46.18;102204.38;5135087;27;20585;-71
2022/07/15 01:44:34;;;;;;;3.97;1.35;;;;;;;23.04;46.09;102207.16;5136151;27;20030;-70
2022/07/15 01:47:00;;;;;;;4.78;1.20;;;;;;;23.02;46.08;102217.91;5135809;27;20050;-70
2022/07/15 01:49:25;;;;;;;3.88;1.30;;;;;;;23.01;46.09;102218.88;5135199;27;20047;-71
2022/07/15 01:51:55;;;;;;;3.85;1.40;;;;;;;23.01;46.41;102219.69;5135503;27;20102;-70
2022/07/15 01:54:22;;;;;;;4.85;1.42;;;;;;;23.02;46.09;102217.91;5136011;27;20042;-70
2022/07/15 01:56:54;;;;;;;4.05;1.20;;;;;;;22.99;46.27;102213.66;5135156;27;20098;-71
2022/07/15 01:59:24;;;;;;;4.10;1.30;;;;;;;22.98;45.79;102222.59;5135875;27;20038;-70
2022/07/15 02:01:53;;;;;;;4.03;1.40;;;;;;;22.98;46.23;102221.78;5135616;27;20057;-71
2022/07/15 02:04:19;;;;;;;6.05;1.60;;;;;;;22.97;45.89;102226.25;5134723;27;20147;-71
2022/07/15 02:06:44;;;;;;;5.18;1.50;;;;;;;22.95;46.12;102227.34;5135877;27;20039;-70
2022/07/15 02:09:10;;;;;;;3.25;1.40;;;;;;;22.97;46.00;102220.94;5135119;27;20474;-70
2022/07/15 02:11:38;;;;;;;5.53;1.40;;;;;;;22.94;45.94;102221.19;5134436;27;20035;-71
2022/07/15 02:14:03;;;;;;;3.60;1.38;;;;;;;22.94;46.15;102221.19;5135183;27;20373;-70
2022/07/15 02:16:30;;;;;;;3.58;1.38;;;;;;;22.93;45.87;102221.31;5134049;27;20485;-71
2022/07/15 02:18:55;;;;;;;4.75;1.30;;;;;;;22.94;46.05;102223.84;5134118;27;20489;-71
2022/07/15 02:21:26;;;;;;;3.88;1.15;;;;;;;22.93;46.12;102214.16;5135298;27;20027;-70
2022/07/15 02:23:52;;;;;;;4.13;1.25;;;;;;;22.92;46.00;102214.28;5135211;27;20061;-70
2022/07/15 02:26:18;;;;;;;5.05;1.60;;;;;;;22.91;46.06;102218.75;5134444;27;20471;-71
2022/07/15 02:28:43;;;;;;;4.80;1.23;;;;;;;22.90;46.20;102217.06;5135187;27;20114;-71
2022/07/15 02:31:09;;;;;;;3.28;1.35;;;;;;;22.89;46.22;102215.41;5134137;27;20428;-70
2022/07/15 02:33:34;;;;;;;4.15;1.48;;;;;;;22.88;45.75;102211.03;5135110;27;20106;-70
2022/07/15 02:35:59;;;;;;;4.82;1.50;;;;;;;22.88;45.80;102215.53;5134667;27;20386;-70
2022/07/15 02:38:25;;;;;;;3.83;1.42;;;;;;;22.87;46.13;102211.16;5134288;27;20424;-70
2022/07/15 02:40:50;;;;;;;3.55;1.30;;;;;;;22.86;45.96;102215.63;5134736;27;20087;-70
2022/07/15 02:43:15;;;;;;;4.05;1.50;;;;;;;22.87;45.98;102216.47;5134907;27;20037;-70
2022/07/15 02:45:41;;;;;;;4.57;1.50;;;;;;;22.85;46.00;102216.59;5134101;27;20114;-70
2022/07/15 02:48:08;;;;;;;4.07;1.38;;;;;;;22.86;45.63;102218.28;5134520;27;20023;-70
2022/07/15 02:50:34;;;;;;;4.25;1.38;;;;;;;22.86;45.79;102222.75;5134899;27;20100;-71
2022/07/15 02:53:03;;;;;;;5.22;1.40;;;;;;;22.85;45.64;102227.22;5133718;27;20028;-70
2022/07/15 02:55:29;;;;;;;3.72;1.27;;;;;;;22.85;45.79;102223.72;5134100;27;20019;-70
2022/07/15 02:57:54;;;;;;;5.35;1.50;;;;;;;22.85;45.85;102223.72;5134361;27;20034;-70
2022/07/15 03:00:20;;;;;;;4.03;1.35;;;;;;;22.85;45.70;102229.88;5133597;27;20466;-71
2022/07/15 03:02:47;;;;;;;4.43;1.33;;;;;;;22.85;45.77;102239.69;5134357;27;20023;-70
2022/07/15 03:05:13;;;;;;;3.38;1.20;;;;;;;22.83;45.73;102239.81;5134262;27;20059;-70
2022/07/15 03:07:40;;;;;;;3.40;1.23;;;;;;;22.82;45.86;102249.56;5133693;27;20031;-70
2022/07/15 03:10:06;;;;;;;2.42;1.10;;;;;;;22.81;45.56;102255.88;5134348;27;20015;-70
2022/07/15 03:12:36;;;;;;;2.55;1.23;;;;;;;22.79;45.82;102247.16;5134077;27;20092;-70
2022/07/15 03:15:02;;;;;;;2.67;1.10;;;;;;;22.79;46.16;102249.81;5133110;27;20019;-70
2022/07/15 03:17:28;;;;;;;3.85;1.40;;;;;;;22.78;45.63;102250.81;5133988;27;20023;-70
2022/07/15 03:19:56;;;;;;;3.90;1.33;;;;;;;22.78;45.57;102250.81;5133954;27;20104;-70
2022/07/15 03:22:25;;;;;;;4.45;1.45;;;;;;;22.77;45.98;102249.09;5133299;27;20382;-70
2022/07/15 03:24:51;;;;;;;3.85;1.20;;;;;;;22.76;45.86;102249.22;5133663;27;20030;-70
2022/07/15 03:27:17;;;;;;;3.90;1.35;;;;;;;22.75;45.64;102256.34;5133151;27;20019;-70
2022/07/15 03:29:42;;;;;;;3.63;1.30;;;;;;;22.76;45.53;102262.50;5133886;27;20110;-70
2022/07/15 03:32:08;;;;;;;3.53;1.35;;;;;;;22.76;45.76;102259.84;5133909;27;20110;-70
2022/07/15 03:34:34;;;;;;;4.03;1.40;;;;;;;22.76;45.53;102262.50;5133355;27;20130;-70
2022/07/15 03:36:59;;;;;;;4.27;1.30;;;;;;;22.74;45.70;102262.63;5133823;27;20051;-70
2022/07/15 03:39:26;;;;;;;3.28;1.23;;;;;;;22.76;45.75;102273.13;5134113;27;20061;-70
2022/07/15 03:41:51;;;;;;;3.97;1.10;;;;;;;22.74;45.48;102267.09;5132932;27;20037;-70
2022/07/15 03:44:17;;;;;;;3.72;1.17;;;;;;;22.72;45.53;102267.22;5133756;27;20106;-70
2022/07/15 03:46:46;;;;;;;3.42;1.30;;;;;;;22.72;45.87;102269.03;5133789;27;20030;-70
2022/07/15 03:49:15;;;;;;;2.67;1.13;;;;;;;22.72;45.52;102271.72;5132935;27;20019;-70
2022/07/15 03:51:40;;;;;;;3.53;1.30;;;;;;;22.71;45.55;102275.31;5133957;27;20024;-70
2022/07/15 03:54:06;;;;;;;4.43;1.25;;;;;;;22.71;45.74;102277.97;5133487;27;20152;-70
2022/07/15 03:56:32;;;;;;;4.38;1.20;;;;;;;22.71;45.53;102284.13;5132990;27;20023;-70
2022/07/15 03:58:58;;;;;;;4.07;1.30;;;;;;;22.70;45.80;102286.91;5133277;27;20019;-70
2022/07/15 04:01:23;;;;;;;3.88;1.33;;;;;;;22.69;45.63;102286.06;5133582;28;20057;-70
2022/07/15 04:03:52;;;;;;;4.05;1.30;;;;;;;22.69;45.86;102290.53;5133095;28;20055;-70
2022/07/15 04:06:18;;;;;;;4.13;1.30;;;;;;;22.70;45.43;102281.59;5135126;27;20027;-70
2022/07/15 04:08:44;;;;;;;2.75;1.10;;;;;;;22.70;45.73;102286.91;5137845;27;20367;-70
2022/07/15 04:11:11;;;;;;;3.90;1.33;;;;;;;22.70;45.88;102281.59;5135343;27;20054;-70
2022/07/15 04:13:36;;;;;;;3.50;1.35;;;;;;;22.73;45.46;102286.66;5137837;27;20084;-70
2022/07/15 04:16:02;;;;;;;3.47;1.27;;;;;;;22.71;45.69;102286.78;5137568;27;20493;-70
2022/07/15 04:18:27;;;;;;;3.42;1.35;;;;;;;22.70;45.71;102282.44;5136976;27;20019;-70
2022/07/15 04:20:52;;;;;;;4.50;1.30;;;;;;;22.71;45.59;102286.78;5137525;27;20023;-70
2022/07/15 04:23:24;;;;;;;3.45;1.30;;;;;;;22.70;45.68;102286.91;5137559;27;20259;-70
2022/07/15 04:25:53;;;;;;;4.40;1.40;;;;;;;22.71;45.48;102286.78;5136676;27;20035;-70
2022/07/15 04:28:19;;;;;;;4.57;1.42;;;;;;;22.70;45.53;102286.91;5137612;27;20370;-70
2022/07/15 04:30:45;;;;;;;4.70;1.40;;;;;;;22.70;45.81;102289.56;5136197;27;20037;-70
2022/07/15 04:33:10;;;;;;;5.25;1.30;;;;;;;22.71;45.53;102288.59;5137452;27;20115;-70
2022/07/15 04:35:36;;;;;;;3.85;1.40;;;;;;;22.69;45.84;102285.22;5137404;27;20023;-70
2022/07/15 04:38:01;;;;;;;3.72;1.25;;;;;;;22.70;45.86;102290.44;5136291;27;20468;-70
2022/07/15 04:40:26;;;;;;;4.07;1.35;;;;;;;22.71;45.85;102288.59;5137162;27;20046;-70
2022/07/15 04:42:52;;;;;;;5.30;1.47;;;;;;;22.71;45.68;102292.09;5137017;27;20046;-70
2022/07/15 04:45:17;;;;;;;3.65;1.40;;;;;;;22.72;45.55;102291.13;5136411;27;20283;-70
2022/07/15 04:47:45;;;;;;;3.65;1.30;;;;;;;22.72;45.47;102296.47;5136954;27;20442;-70
2022/07/15 04:52:54;;;;;;;3.08;1.25;;;;;;;22.73;45.77;102298.16;5136030;27;20065;-70
2022/07/15 04:55:20;;;;;;;3.50;1.35;;;;;;;22.73;45.81;102298.16;5136841;27;20061;-71
2022/07/15 04:57:48;;;;;;;4.40;1.20;;;;;;;22.76;45.46;102297.88;5136825;27;20035;-70
2022/07/15 05:00:13;;;;;;;3.10;1.15;;;;;;;22.76;45.63;102305.03;5135852;27;20267;-71
2022/07/15 05:02:38;;;;;;;3.55;1.33;;;;;;;22.74;45.59;102299.00;5136779;27;20504;-70
2022/07/15 05:05:06;;;;;;;3.13;1.20;;;;;;;22.74;45.66;102299.00;5136487;27;20390;-71
2022/07/15 05:07:32;;;;;;;3.80;1.40;;;;;;;22.73;45.86;102298.16;5135847;27;20023;-69
2022/07/15 05:10:00;;;;;;;3.37;1.73;;;;;;;22.73;45.97;102295.50;5136462;27;20030;-70
2022/07/15 05:12:25;;;;;;;4.15;1.15;;;;;;;22.76;45.65;102297.06;5136416;27;20698;-70
2022/07/15 05:14:50;;;;;;;3.63;1.50;;;;;;;22.72;45.70;102293.81;5135636;27;20106;-68
2022/07/15 05:17:15;;;;;;;3.60;1.20;;;;;;;22.77;45.76;102307.56;5136221;27;20267;-68
2022/07/15 05:19:41;;;;;;;5.32;1.88;;;;;;;22.63;43.61;102300.66;5136426;27;20259;-69
2022/07/15 05:22:12;;;;;;;6.00;2.47;;;;;;;22.21;44.02;102299.50;5135223;27;20084;-69
2022/07/15 05:24:40;;;;;;;5.30;2.25;;;;;;;21.72;45.39;102299.53;5136490;27;20031;-69
2022/07/15 05:27:06;;;;;;;6.97;2.13;;;;;;;21.27;46.59;102301.03;5135119;27;20942;-69
2022/07/15 05:29:32;;;;;;;6.03;2.13;;;;;;;20.92;47.40;102304.41;5136407;27;20027;-68
2022/07/15 05:31:57;;;;;;;6.88;2.30;;;;;;;20.63;48.24;102300.16;5135929;27;20536;-67
2022/07/15 05:34:22;;;;;;;5.37;1.73;;;;;;;20.40;48.94;102304.38;5135546;27;20023;-68
2022/07/15 05:36:50;;;;;;;8.17;2.30;;;;;;;20.20;49.37;102299.59;5136002;27;20285;-69
2022/07/15 05:39:16;;;;;;;7.00;2.17;;;;;;;20.06;49.83;102300.50;5136210;27;20263;-68
2022/07/15 05:41:41;;;;;;;5.53;2.33;;;;;;;19.95;49.84;102301.25;5135416;27;20028;-70
2022/07/15 05:44:09;;;;;;;5.80;1.92;;;;;;;19.87;50.76;102293.81;5135792;27;20260;-70
2022/07/15 05:46:34;;;;;;;5.38;2.10;;;;;;;19.80;51.02;102299.59;5135866;27;20069;-70
2022/07/15 05:49:00;;;;;;;6.37;1.97;;;;;;;19.72;51.08;102300.06;5134819;27;20027;-69
2022/07/15 05:51:26;;;;;;;7.75;2.47;;;;;;;19.65;51.53;102298.78;5135835;27;20264;-71
2022/07/15 05:53:51;;;;;;;6.97;2.22;;;;;;;19.60;51.70;102298.22;5135504;27;20351;-71
2022/07/15 05:56:16;;;;;;;7.57;3.00;;;;;;;19.55;51.84;102294.09;5135153;27;20068;-70
2022/07/15 05:58:41;;;;;;;9.25;2.30;;;;;;;19.51;52.18;102283.78;5135659;27;20656;-71
2022/07/15 06:01:07;;;;;;;5.47;1.92;;;;;;;19.51;51.86;102297.03;5135396;27;20023;-69
2022/07/15 06:03:32;;;;;;;6.35;2.05;;;;;;;19.41;51.71;102296.75;5134930;27;20015;-69
2022/07/15 06:05:59;;;;;;;6.25;2.40;;;;;;;19.34;52.24;102298.97;5135162;27;20030;-69
2022/07/15 06:08:24;;;;;;;5.97;2.03;;;;;;;19.28;52.34;102301.13;5134279;27;20035;-67
2022/07/15 06:10:50;;;;;;;5.13;2.05;;;;;;;19.24;52.40;102304.91;5134133;27;20062;-67
2022/07/15 06:13:20;;;;;;;7.63;2.35;;;;;;;19.20;52.73;102305.09;5135430;27;20023;-67
2022/07/15 06:15:45;;;;;;;4.70;1.90;;;;;;;19.17;52.92;102297.38;5135464;27;20046;-68
2022/07/15 06:18:11;;;;;;;4.60;1.60;;;;;;;19.16;53.29;102300.09;5134356;27;20051;-65
2022/07/15 06:20:36;;;;;;;4.90;1.60;;;;;;;18.97;51.45;102271.34;5135189;27;20256;-65
2022/07/15 06:23:01;;;;;;;4.90;1.80;;;;;;;19.14;52.16;102305.50;5135112;27;20279;-66
2022/07/15 06:25:27;;;;;;;4.85;1.70;;;;;;;19.17;50.77;102305.28;5134550;27;20027;-66
2022/07/15 06:27:52;;;;;;;5.93;1.73;;;;;;;19.19;50.54;102300.75;5134883;27;20027;-65
2022/07/15 06:30:20;;;;;;;4.45;1.20;;;;;;;19.21;50.72;102301.50;5133617;27;20264;-65
2022/07/15 06:32:45;;;;;;;6.28;1.88;;;;;;;19.23;51.30;102295.28;5135166;27;20611;-65
2022/07/15 06:35:11;;;;;;;9.57;1.60;;;;;;;19.24;50.16;102297.81;5134759;27;20109;-65
2022/07/15 06:37:37;;;;;;;6.20;1.70;;;;;;;19.25;49.83;102296.88;5134418;27;20738;-70
2022/07/15 06:40:03;;;;;;;5.68;1.45;;;;;;;19.20;50.65;102296.31;5134700;27;20111;-70
2022/07/15 06:42:28;;;;;;;4.95;1.20;;;;;;;19.21;50.13;102295.38;5134986;27;20031;-71
2022/07/15 06:44:54;;;;;;;6.05;1.13;;;;;;;19.25;49.86;102302.19;5133788;27;20031;-69
2022/07/15 06:47:19;;;;;;;6.28;1.38;;;;;;;19.29;49.44;102297.53;5134904;27;20513;-71
2022/07/15 06:49:45;;;;;;;3.95;1.25;;;;;;;19.31;50.03;102296.50;5134792;27;20359;-71
2022/07/15 06:52:10;;;;;;;5.15;1.40;;;;;;;19.35;50.56;102298.00;5133820;27;20027;-71
2022/07/15 06:54:35;;;;;;;3.80;0.98;;;;;;;19.39;49.16;102299.50;5134875;27;20115;-72
2022/07/15 06:57:01;;;;;;;4.60;1.13;;;;;;;19.45;48.50;102303.53;5134470;27;20047;-70
2022/07/15 06:59:27;;;;;;;4.75;1.10;;;;;;;19.49;48.80;102297.13;5133854;27;20034;-70
2022/07/15 07:01:52;;;;;;;4.40;1.02;;;;;;;19.52;48.97;102298.72;5134369;27;20019;-69
2022/07/15 07:04:18;;;;;;;3.03;0.90;;;;;;;19.52;48.44;102291.63;5134405;27;20015;-70
2022/07/15 07:06:43;;;;;;;5.43;1.20;;;;;;;19.54;48.10;102295.00;5133812;27;20042;-70
2022/07/15 07:09:09;;;;;;;4.22;1.00;;;;;;;19.57;48.37;102292.19;5134086;27;20038;-70
2022/07/15 07:11:34;;;;;;;4.15;1.25;;;;;;;19.62;48.60;102298.97;5134232;27;20051;-71
2022/07/15 07:13:59;;;;;;;3.08;0.80;;;;;;;19.68;48.11;102301.22;5133329;27;20509;-71
2022/07/15 07:16:25;;;;;;;5.90;1.00;;;;;;;19.73;47.54;102301.78;5134287;27;20543;-70
2022/07/15 07:18:51;;;;;;;4.57;1.00;;;;;;;19.78;47.46;102301.50;5133810;27;20169;-71
2022/07/15 07:21:17;;;;;;;3.80;1.00;;;;;;;19.80;46.73;102308.38;5133442;27;20469;-70
2022/07/15 07:23:44;;;;;;;4.50;0.90;;;;;;;19.81;45.91;102301.31;5134409;27;20122;-70
2022/07/15 07:26:11;;;;;;;4.63;0.82;;;;;;;19.83;46.04;102307.34;5134019;27;20306;-68
2022/07/15 07:28:38;;;;;;;3.22;0.90;;;;;;;19.84;45.61;102307.22;5133487;27;20030;-69
2022/07/15 07:31:03;;;;;;;4.13;0.80;;;;;;;19.84;45.44;102307.22;5133756;27;20015;-69
2022/07/15 07:33:29;;;;;;;3.40;1.02;;;;;;;19.82;43.60;102310.91;5133162;27;20072;-69
2022/07/15 07:35:54;;;;;;;5.47;1.13;;;;;;;19.82;43.62;102311.78;5133899;27;20015;-68
2022/07/15 07:38:20;;;;;;;4.35;0.90;;;;;;;19.79;44.47;102311.13;5133992;27;20494;-69
2022/07/15 07:40:47;;;;;;;2.20;0.80;;;;;;;19.78;44.23;102315.56;5133095;27;20542;-68
2022/07/15 07:43:14;;;;;;;2.70;0.80;;;;;;;19.78;44.60;102314.72;5133649;27;20027;-69
2022/07/15 07:45:39;;;;;;;2.95;0.70;;;;;;;19.77;44.92;102319.16;5133762;27;20408;-65
2022/07/15 07:48:17;;;;;;;6.32;1.00;;;;;;;19.78;45.14;102318.22;5132575;27;20062;-65
2022/07/15 07:50:43;;;;;;;3.88;0.90;;;;;;;19.84;45.63;102316.97;5133638;27;20488;-66
2022/07/15 07:53:09;;;;;;;4.65;0.85;;;;;;;19.86;45.00;102312.44;5133316;27;20076;-65
2022/07/15 07:55:35;;;;;;;2.78;0.80;;;;;;;19.88;44.03;102316.66;5133125;27;20030;-64
2022/07/15 07:58:01;;;;;;;2.55;0.70;;;;;;;19.91;43.91;102315.59;5133414;27;20090;-66
2022/07/15 08:00:27;;;;;;;4.05;0.90;;;;;;;19.94;43.45;102316.25;5133582;27;20027;-65
2022/07/15 08:02:54;;;;;;;2.50;0.60;;;;;;;19.97;42.86;102314.38;5132609;27;20015;-65
2022/07/15 08:05:20;;;;;;;5.18;1.15;;;;;;;20.01;43.34;102314.06;5133561;28;20027;-66
2022/07/15 08:07:45;;;;;;;5.10;0.88;;;;;;;20.03;43.51;102314.81;5133472;28;20088;-65
2022/07/15 08:10:12;;;;;;;4.07;0.90;;;;;;;20.04;43.98;102318.28;5132517;28;20019;-65
2022/07/15 08:12:38;;;;;;;5.72;0.85;;;;;;;20.07;44.13;102318.09;5133351;28;20118;-66
2022/07/15 08:15:06;;;;;;;3.72;0.88;;;;;;;20.08;44.17;102318.00;5133239;28;20450;-66
2022/07/15 08:17:31;;;;;;;3.65;1.00;;;;;;;20.10;44.78;102309.94;5132821;28;20015;-65
2022/07/15 08:19:56;;;;;;;4.35;1.20;;;;;;;20.11;44.22;102317.78;5133268;28;20023;-66
2022/07/15 08:22:22;;;;;;;4.65;0.90;;;;;;;20.14;42.85;102318.53;5133327;28;20019;-66
2022/07/15 08:24:49;;;;;;;5.28;1.02;;;;;;;20.17;43.27;102318.31;5132354;28;20423;-65
2022/07/15 08:27:15;;;;;;;4.88;0.90;;;;;;;20.16;43.16;102322.78;5133337;28;20027;-68
2022/07/15 08:29:40;;;;;;;4.15;0.80;;;;;;;20.21;43.97;102327.78;5132461;28;20024;-65
2022/07/15 08:32:08;;;;;;;3.80;1.00;;;;;;;20.25;44.41;102331.88;5133053;28;20019;-65
2022/07/15 08:34:37;;;;;;;3.22;0.85;;;;;;;20.27;44.12;102319.41;5133384;28;20777;-65
2022/07/15 08:37:02;;;;;;;4.72;0.98;;;;;;;20.28;42.53;102326.38;5132715;28;20476;-65
2022/07/15 08:39:27;;;;;;;3.80;1.10;;;;;;;20.28;42.96;102327.25;5133230;28;20084;-65
2022/07/15 08:41:53;;;;;;;5.07;0.95;;;;;;;20.28;43.53;102319.31;5132998;28;20023;-65
2022/07/15 08:44:19;;;;;;;2.35;0.65;;;;;;;20.29;43.38;102315.69;5132367;28;20538;-65
2022/07/15 08:46:46;;;;;;;3.75;0.80;;;;;;;20.32;42.16;102308.53;5132973;28;20023;-65
2022/07/15 08:49:14;;;;;;;4.28;0.80;;;;;;;20.34;42.46;102306.59;5133290;28;20046;-63
2022/07/15 08:51:42;;;;;;;5.63;0.90;;;;;;;20.38;42.50;102303.66;5132179;27;20462;-64
2022/07/15 08:54:07;;;;;;;3.40;0.80;;;;;;;20.41;42.78;102308.75;5137115;27;20027;-64
2022/07/15 08:56:34;;;;;;;4.78;1.17;;;;;;;20.45;42.01;102312.03;5136946;27;20027;-65
2022/07/15 08:59:01;;;;;;;3.80;0.80;;;;;;;20.46;42.08;102311.06;5136261;27;20088;-64
2022/07/15 09:01:28;;;;;;;4.57;0.90;;;;;;;20.48;42.93;102315.28;5136846;27;20451;-64
2022/07/15 09:03:54;;;;;;;4.43;0.80;;;;;;;20.50;41.92;102311.72;5136690;27;20374;-64
2022/07/15 09:06:36;;;;;;;4.43;0.80;;;;;;;20.49;42.67;102313.50;5136122;27;20039;-64
2022/07/15 09:09:22;;;;;;;3.95;0.80;;;;;;;20.54;43.92;102308.75;5136744;27;20051;-64
2022/07/15 09:12:08;;;;;;;3.80;0.85;;;;;;;20.59;44.47;102305.78;5136185;27;20047;-64
2022/07/15 09:14:36;;;;;;;4.28;0.80;;;;;;;20.63;43.91;102301.94;5136794;27;20031;-66
2022/07/15 09:17:10;;;;;;;5.78;0.90;;;;;;;20.62;42.98;102301.13;5136599;27;20024;-66
2022/07/15 09:20:09;;;;;;;3.55;0.70;;;;;;;20.61;42.01;102299.41;5135684;27;20497;-64
2022/07/15 09:22:52;;;;;;;3.72;0.80;;;;;;;20.61;42.59;102301.22;5136106;27;20035;-65
2022/07/15 09:25:18;;;;;;;3.53;0.73;;;;;;;20.58;42.33;102302.25;5136429;27;20039;-65
2022/07/15 09:27:44;;;;;;;3.40;0.70;;;;;;;20.59;40.40;102300.50;5135259;27;20020;-65
2022/07/15 09:36:03;;;;;;;3.63;0.70;;;;;;;20.75;40.84;102297.66;5136238;27;20034;-71
2022/07/15 09:38:57;;;;;;;2.67;0.75;;;;;;;20.82;40.48;102297.13;5136176;27;20016;-67
2022/07/15 09:41:27;;;;;;;2.00;0.70;;;;;;;20.89;40.30;102302.00;5134773;27;20080;-71
2022/07/15 09:43:55;;;;;;;4.28;0.80;;;;;;;20.94;41.16;102294.56;5136010;27;20027;-66
2022/07/15 09:46:21;;;;;;;2.70;0.65;;;;;;;21.01;40.37;102291.38;5136188;27;20038;-70
2022/07/15 09:48:49;;;;;;;2.75;0.77;;;;;;;21.10;39.38;102284.56;5134940;27;20442;-69
2022/07/15 09:51:15;;;;;;;3.08;0.60;;;;;;;21.16;39.30;102294.72;5135985;27;20027;-66
2022/07/15 09:53:41;;;;;;;2.80;0.80;;;;;;;21.21;39.73;102297.03;5135675;27;20466;-68
2022/07/15 09:56:09;;;;;;;3.40;0.60;;;;;;;21.28;39.25;102290.34;5135268;27;20125;-67
2022/07/15 09:58:39;;;;;;;1.33;0.50;;;;;;;21.37;39.83;102292.31;5135643;27;20027;-67
2022/07/15 10:01:06;;;;;;;2.00;0.60;;;;;;;21.45;39.51;102285.63;5135829;27;20015;-65
2022/07/15 10:03:33;;;;;;;2.42;0.75;;;;;;;21.52;38.86;102287.75;5134295;27;20023;-67
2022/07/15 10:06:00;;;;;;;3.60;0.77;;;;;;;21.61;39.86;102285.38;5135586;27;20027;-68
2022/07/15 10:08:27;;;;;;;2.78;0.80;;;;;;;21.68;39.21;102283.97;5135061;27;20492;-69
2022/07/15 10:10:56;;;;;;;3.33;0.68;;;;;;;21.78;39.06;102277.03;5135362;27;20031;-65
2022/07/15 10:13:42;;;;;;;3.55;0.75;;;;;;;21.81;39.11;102279.44;5135731;27;20068;-64
2022/07/15 10:16:31;;;;;;;5.90;0.88;;;;;;;21.80;39.45;102274.25;5134731;27;20023;-66
2022/07/15 10:19:18;;;;;;;4.60;0.70;;;;;;;21.77;40.08;102282.44;5135263;27;20057;-64
2022/07/15 10:22:21;;;;;;;2.45;0.70;;;;;;;21.76;38.94;102272.78;5135271;27;20023;-65
2022/07/15 10:24:55;;;;;;;3.35;0.60;;;;;;;21.75;39.14;102271.94;5134922;27;20031;-67
2022/07/15 10:27:48;;;;;;;3.72;0.68;;;;;;;21.81;39.91;102274.13;5135567;27;20034;-71
2022/07/15 10:30:39;;;;;;;1.83;0.50;;;;;;;21.91;40.22;102269.00;5134526;27;20031;-70
2022/07/15 10:33:15;;;;;;;2.30;0.65;;;;;;;22.02;40.45;102263.72;5135388;27;20095;-72
2022/07/15 10:35:51;;;;;;;2.33;0.63;;;;;;;22.12;40.15;102260.38;5135063;27;20027;-71
2022/07/15 10:38:20;;;;;;;1.52;0.50;;;;;;;22.18;40.44;102262.56;5134501;27;20118;-66
2022/07/15 10:40:59;;;;;;;2.45;0.60;;;;;;;22.24;40.04;102262.91;5134782;27;20106;-65
2022/07/15 10:43:45;;;;;;;1.55;0.50;;;;;;;22.34;39.98;102264.91;5134570;27;20030;-71
2022/07/15 10:46:16;;;;;;;4.53;0.60;;;;;;;22.37;39.94;102254.88;5134984;27;20033;-66
2022/07/15 10:48:42;;;;;;;5.18;1.17;;;;;;;22.43;40.26;102251.75;5133479;27;20161;-66
2022/07/15 10:51:11;;;;;;;2.47;0.57;;;;;;;22.46;40.59;102254.19;5134186;27;20111;-66
2022/07/15 10:53:44;;;;;;;2.35;0.65;;;;;;;22.53;40.02;102257.19;5134375;27;20110;-65
2022/07/15 10:56:29;;;;;;;4.35;0.77;;;;;;;22.56;40.54;102246.31;5134939;27;20106;-66
2022/07/15 10:59:15;;;;;;;3.72;0.88;;;;;;;22.61;40.50;102245.97;5133756;27;20039;-68
2022/07/15 11:02:10;;;;;;;3.65;0.70;;;;;;;22.65;40.60;102242.09;5134251;27;20023;-67
2022/07/15 11:04:36;;;;;;;2.88;0.63;;;;;;;22.68;40.73;102236.53;5133423;27;20362;-69
2022/07/15 11:07:07;;;;;;;3.50;0.75;;;;;;;22.72;40.89;102237.16;5134587;27;20023;-68
2022/07/15 11:09:52;;;;;;;1.95;0.50;;;;;;;22.75;40.80;102243.06;5134575;27;20360;-72
2022/07/15 11:12:21;;;;;;;4.82;0.73;;;;;;;22.76;40.68;102234.09;5134062;27;20559;-71
2022/07/15 11:14:49;;;;;;;3.30;0.70;;;;;;;22.78;40.93;102234.84;5134000;27;20023;-71
2022/07/15 11:17:18;;;;;;;3.40;0.60;;;;;;;22.76;41.21;102227.97;5134489;27;20031;-70
2022/07/15 11:19:49;;;;;;;2.38;0.60;;;;;;;22.80;41.32;102240.03;5133282;27;20050;-69
2022/07/15 11:22:17;;;;;;;2.47;0.70;;;;;;;22.84;41.48;102238.81;5134345;27;20031;-65
2022/07/15 11:24:42;;;;;;;3.05;0.80;;;;;;;22.87;41.40;102235.91;5134016;27;20031;-65
2022/07/15 11:27:10;;;;;;;4.13;0.90;;;;;;;22.88;41.27;102234.97;5133486;27;20031;-64
2022/07/15 11:29:51;;;;;;;2.63;0.70;;;;;;;22.93;41.04;102227.44;5134073;27;20031;-63
2022/07/15 11:32:21;;;;;;;2.13;0.55;;;;;;;22.94;40.87;102228.28;5134269;27;20054;-65
2022/07/15 11:34:56;;;;;;;3.95;0.70;;;;;;;22.95;41.52;102222.00;5133112;27;20027;-66
2022/07/15 11:37:38;;;;;;;3.53;1.02;;;;;;;22.94;41.02;102226.50;5134075;27;20023;-64